Terminal Aerodrome Forecast
Issued by NWS Hastings, NE

Home | Current Version | Previous Version | Text Only | Print | Product List | Glossary On
Versions: 1 2 3 4 5 6 7 8 9 10 11 12 13 14 15 16 17
000
FTUS43 KGID 211137
TAFGRI
TAF
KGRI 211137Z 2112/2212 26006KT 6SM BR BKN050
     FM211500 25005KT P6SM BKN100
     FM211600 26005KT P6SM SCT200
     FM220200 02004KT P6SM FEW200
     FM220900 32007KT P6SM FEW250
     FM221100 32008KT P6SM FEW150=

USA.gov is the U.S. government's official web portal to all federal, state and local government web resources and services.